sensor_id;sensor_type;location;lat;lon;timestamp;P1;durP1;ratioP1;P2;durP2;ratioP2
67156;SDS011;54086;50.126;8.710;2022-08-27T00:01:29;16.27;;;9.63;;
67156;SDS011;54086;50.126;8.710;2022-08-27T00:03:54;18.85;;;9.93;;
67156;SDS011;54086;50.126;8.710;2022-08-27T00:06:20;15.13;;;9.80;;
67156;SDS011;54086;50.126;8.710;2022-08-27T00:08:47;17.63;;;9.65;;
67156;SDS011;54086;50.126;8.710;2022-08-27T00:11:14;15.52;;;9.73;;
67156;SDS011;54086;50.126;8.710;2022-08-27T00:13:42;14.17;;;9.43;;
67156;SDS011;54086;50.126;8.710;2022-08-27T00:16:09;13.15;;;10.05;;
67156;SDS011;54086;50.126;8.710;2022-08-27T00:18:36;14.15;;;8.77;;
67156;SDS011;54086;50.126;8.710;2022-08-27T00:21:03;15.60;;;9.18;;
67156;SDS011;54086;50.126;8.710;2022-08-27T00:23:29;16.70;;;9.52;;
67156;SDS011;54086;50.126;8.710;2022-08-27T00:25:55;16.27;;;9.77;;
67156;SDS011;54086;50.126;8.710;2022-08-27T00:28:21;20.05;;;10.30;;
67156;SDS011;54086;50.126;8.710;2022-08-27T00:30:46;14.50;;;9.57;;
67156;SDS011;54086;50.126;8.710;2022-08-27T00:33:12;15.97;;;9.77;;
67156;SDS011;54086;50.126;8.710;2022-08-27T00:35:37;16.17;;;9.50;;
67156;SDS011;54086;50.126;8.710;2022-08-27T00:38:03;15.43;;;9.47;;
67156;SDS011;54086;50.126;8.710;2022-08-27T00:40:31;13.93;;;8.65;;
67156;SDS011;54086;50.126;8.710;2022-08-27T00:42:57;15.35;;;9.23;;
67156;SDS011;54086;50.126;8.710;2022-08-27T00:45:26;14.30;;;8.73;;
67156;SDS011;54086;50.126;8.710;2022-08-27T00:47:55;14.95;;;8.80;;
67156;SDS011;54086;50.126;8.710;2022-08-27T00:50:33;13.97;;;8.93;;
67156;SDS011;54086;50.126;8.710;2022-08-27T00:53:27;14.00;;;8.63;;
67156;SDS011;54086;50.126;8.710;2022-08-27T00:58:34;13.90;;;8.32;;
67156;SDS011;54086;50.126;8.710;2022-08-27T01:01:02;15.73;;;8.95;;
67156;SDS011;54086;50.126;8.710;2022-08-27T01:03:29;15.97;;;9.60;;
67156;SDS011;54086;50.126;8.710;2022-08-27T01:05:55;13.90;;;8.75;;
67156;SDS011;54086;50.126;8.710;2022-08-27T01:08:26;16.92;;;8.25;;
67156;SDS011;54086;50.126;8.710;2022-08-27T01:10:55;14.73;;;9.15;;
67156;SDS011;54086;50.126;8.710;2022-08-27T01:13:25;16.35;;;9.93;;
67156;SDS011;54086;50.126;8.710;2022-08-27T01:15:53;14.97;;;8.73;;
67156;SDS011;54086;50.126;8.710;2022-08-27T01:18:23;14.82;;;8.43;;
67156;SDS011;54086;50.126;8.710;2022-08-27T01:20:54;12.82;;;8.20;;
67156;SDS011;54086;50.126;8.710;2022-08-27T01:23:30;15.80;;;8.82;;
67156;SDS011;54086;50.126;8.710;2022-08-27T01:26:16;17.48;;;9.27;;
67156;SDS011;54086;50.126;8.710;2022-08-27T01:28:42;13.23;;;8.57;;
67156;SDS011;54086;50.126;8.710;2022-08-27T01:31:09;15.45;;;8.82;;
67156;SDS011;54086;50.126;8.710;2022-08-27T01:33:36;13.45;;;8.18;;
67156;SDS011;54086;50.126;8.710;2022-08-27T01:36:03;14.30;;;8.00;;
67156;SDS011;54086;50.126;8.710;2022-08-27T01:38:29;15.40;;;8.85;;
67156;SDS011;54086;50.126;8.710;2022-08-27T01:40:55;13.27;;;7.80;;
67156;SDS011;54086;50.126;8.710;2022-08-27T01:43:21;13.93;;;7.75;;
67156;SDS011;54086;50.126;8.710;2022-08-27T01:45:48;14.15;;;8.00;;
67156;SDS011;54086;50.126;8.710;2022-08-27T01:48:15;13.67;;;8.27;;
67156;SDS011;54086;50.126;8.710;2022-08-27T01:50:43;14.80;;;8.57;;
67156;SDS011;54086;50.126;8.710;2022-08-27T01:53:10;13.77;;;8.13;;
67156;SDS011;54086;50.126;8.710;2022-08-27T01:55:41;13.65;;;8.00;;
67156;SDS011;54086;50.126;8.710;2022-08-27T01:58:08;16.20;;;8.68;;
67156;SDS011;54086;50.126;8.710;2022-08-27T02:00:35;16.30;;;9.90;;
67156;SDS011;54086;50.126;8.710;2022-08-27T02:03:05;17.00;;;8.48;;
67156;SDS011;54086;50.126;8.710;2022-08-27T02:05:31;14.48;;;7.45;;
67156;SDS011;54086;50.126;8.710;2022-08-27T02:07:57;15.60;;;8.23;;
67156;SDS011;54086;50.126;8.710;2022-08-27T02:10:24;16.70;;;7.03;;
67156;SDS011;54086;50.126;8.710;2022-08-27T02:12:53;13.82;;;7.57;;
67156;SDS011;54086;50.126;8.710;2022-08-27T02:15:19;13.48;;;7.78;;
67156;SDS011;54086;50.126;8.710;2022-08-27T02:17:48;12.87;;;7.80;;
67156;SDS011;54086;50.126;8.710;2022-08-27T02:20:14;14.68;;;7.88;;
67156;SDS011;54086;50.126;8.710;2022-08-27T02:22:41;15.70;;;7.90;;
67156;SDS011;54086;50.126;8.710;2022-08-27T02:25:08;16.17;;;7.68;;
67156;SDS011;54086;50.126;8.710;2022-08-27T02:27:36;17.23;;;8.77;;
67156;SDS011;54086;50.126;8.710;2022-08-27T02:30:02;13.00;;;7.82;;
67156;SDS011;54086;50.126;8.710;2022-08-27T02:32:28;14.40;;;8.27;;
67156;SDS011;54086;50.126;8.710;2022-08-27T02:34:54;13.70;;;7.80;;
67156;SDS011;54086;50.126;8.710;2022-08-27T02:37:20;15.15;;;7.95;;
67156;SDS011;54086;50.126;8.710;2022-08-27T02:39:46;17.23;;;8.50;;
67156;SDS011;54086;50.126;8.710;2022-08-27T02:42:11;14.50;;;7.88;;
67156;SDS011;54086;50.126;8.710;2022-08-27T02:44:37;17.07;;;9.07;;
67156;SDS011;54086;50.126;8.710;2022-08-27T02:47:03;15.85;;;8.30;;
67156;SDS011;54086;50.126;8.710;2022-08-27T02:49:29;15.75;;;8.70;;
67156;SDS011;54086;50.126;8.710;2022-08-27T02:51:55;16.27;;;9.20;;
67156;SDS011;54086;50.126;8.710;2022-08-27T02:54:21;13.38;;;7.78;;
67156;SDS011;54086;50.126;8.710;2022-08-27T02:56:48;14.87;;;7.43;;
67156;SDS011;54086;50.126;8.710;2022-08-27T02:59:17;14.63;;;8.52;;
67156;SDS011;54086;50.126;8.710;2022-08-27T03:01:43;14.27;;;8.18;;
67156;SDS011;54086;50.126;8.710;2022-08-27T03:04:08;14.30;;;8.63;;
67156;SDS011;54086;50.126;8.710;2022-08-27T03:06:34;16.33;;;8.48;;
67156;SDS011;54086;50.126;8.710;2022-08-27T03:08:59;14.37;;;8.40;;
67156;SDS011;54086;50.126;8.710;2022-08-27T03:11:24;15.27;;;8.43;;
67156;SDS011;54086;50.126;8.710;2022-08-27T03:13:50;12.80;;;7.50;;
67156;SDS011;54086;50.126;8.710;2022-08-27T03:16:16;15.75;;;8.27;;
67156;SDS011;54086;50.126;8.710;2022-08-27T03:18:42;14.85;;;8.07;;
67156;SDS011;54086;50.126;8.710;2022-08-27T03:21:07;13.40;;;8.37;;
67156;SDS011;54086;50.126;8.710;2022-08-27T03:23:33;16.88;;;8.63;;
67156;SDS011;54086;50.126;8.710;2022-08-27T03:26:02;15.03;;;9.17;;
67156;SDS011;54086;50.126;8.710;2022-08-27T03:28:33;14.80;;;8.63;;
67156;SDS011;54086;50.126;8.710;2022-08-27T03:31:01;15.50;;;8.75;;
67156;SDS011;54086;50.126;8.710;2022-08-27T03:33:36;14.25;;;8.27;;
67156;SDS011;54086;50.126;8.710;2022-08-27T03:36:03;15.93;;;9.10;;
67156;SDS011;54086;50.126;8.710;2022-08-27T03:38:31;15.83;;;9.13;;
67156;SDS011;54086;50.126;8.710;2022-08-27T03:40:57;15.73;;;9.13;;
67156;SDS011;54086;50.126;8.710;2022-08-27T03:43:22;16.57;;;8.10;;
67156;SDS011;54086;50.126;8.710;2022-08-27T03:45:48;15.35;;;8.00;;
67156;SDS011;54086;50.126;8.710;2022-08-27T03:48:15;15.23;;;8.77;;
67156;SDS011;54086;50.126;8.710;2022-08-27T03:50:42;16.43;;;9.10;;
67156;SDS011;54086;50.126;8.710;2022-08-27T03:53:10;14.88;;;8.45;;
67156;SDS011;54086;50.126;8.710;2022-08-27T03:55:37;15.23;;;8.35;;
67156;SDS011;54086;50.126;8.710;2022-08-27T03:58:02;16.53;;;8.57;;
67156;SDS011;54086;50.126;8.710;2022-08-27T04:00:27;14.97;;;8.30;;
67156;SDS011;54086;50.126;8.710;2022-08-27T04:02:53;16.73;;;8.25;;
67156;SDS011;54086;50.126;8.710;2022-08-27T04:05:20;17.57;;;8.63;;
67156;SDS011;54086;50.126;8.710;2022-08-27T04:07:46;14.02;;;8.43;;
67156;SDS011;54086;50.126;8.710;2022-08-27T04:10:13;16.40;;;8.82;;
67156;SDS011;54086;50.126;8.710;2022-08-27T04:12:39;17.05;;;8.73;;
67156;SDS011;54086;50.126;8.710;2022-08-27T04:15:05;14.87;;;8.93;;
67156;SDS011;54086;50.126;8.710;2022-08-27T04:17:31;14.32;;;8.55;;
67156;SDS011;54086;50.126;8.710;2022-08-27T04:19:57;14.77;;;7.97;;
67156;SDS011;54086;50.126;8.710;2022-08-27T04:22:25;14.55;;;8.18;;
67156;SDS011;54086;50.126;8.710;2022-08-27T04:24:51;12.10;;;8.10;;
67156;SDS011;54086;50.126;8.710;2022-08-27T04:27:17;16.48;;;8.70;;
67156;SDS011;54086;50.126;8.710;2022-08-27T04:29:43;14.93;;;8.00;;
67156;SDS011;54086;50.126;8.710;2022-08-27T04:32:08;14.98;;;8.75;;
67156;SDS011;54086;50.126;8.710;2022-08-27T04:34:34;15.10;;;8.80;;
67156;SDS011;54086;50.126;8.710;2022-08-27T04:37:01;16.42;;;8.38;;
67156;SDS011;54086;50.126;8.710;2022-08-27T04:39:27;14.27;;;8.63;;
67156;SDS011;54086;50.126;8.710;2022-08-27T04:41:55;16.80;;;8.18;;
67156;SDS011;54086;50.126;8.710;2022-08-27T04:44:22;13.48;;;8.05;;
67156;SDS011;54086;50.126;8.710;2022-08-27T04:46:52;15.93;;;8.57;;
67156;SDS011;54086;50.126;8.710;2022-08-27T04:49:19;15.25;;;8.30;;
67156;SDS011;54086;50.126;8.710;2022-08-27T04:51:45;14.40;;;8.60;;
67156;SDS011;54086;50.126;8.710;2022-08-27T04:54:10;16.00;;;7.82;;
67156;SDS011;54086;50.126;8.710;2022-08-27T04:56:36;12.70;;;8.30;;
67156;SDS011;54086;50.126;8.710;2022-08-27T04:59:03;14.00;;;8.13;;
67156;SDS011;54086;50.126;8.710;2022-08-27T05:01:29;13.68;;;8.13;;
67156;SDS011;54086;50.126;8.710;2022-08-27T05:03:55;14.07;;;7.80;;
67156;SDS011;54086;50.126;8.710;2022-08-27T05:06:21;13.82;;;7.95;;
67156;SDS011;54086;50.126;8.710;2022-08-27T05:08:48;11.87;;;7.37;;
67156;SDS011;54086;50.126;8.710;2022-08-27T05:11:15;15.05;;;8.20;;
67156;SDS011;54086;50.126;8.710;2022-08-27T05:13:42;13.73;;;7.82;;
67156;SDS011;54086;50.126;8.710;2022-08-27T05:16:09;13.90;;;7.97;;
67156;SDS011;54086;50.126;8.710;2022-08-27T05:18:37;13.57;;;8.05;;
67156;SDS011;54086;50.126;8.710;2022-08-27T05:21:04;15.87;;;8.00;;
67156;SDS011;54086;50.126;8.710;2022-08-27T05:23:31;16.13;;;7.75;;
67156;SDS011;54086;50.126;8.710;2022-08-27T05:25:57;16.17;;;7.97;;
67156;SDS011;54086;50.126;8.710;2022-08-27T05:28:23;14.23;;;8.32;;
67156;SDS011;54086;50.126;8.710;2022-08-27T05:30:51;14.43;;;7.50;;
67156;SDS011;54086;50.126;8.710;2022-08-27T05:33:20;13.63;;;8.10;;
67156;SDS011;54086;50.126;8.710;2022-08-27T05:35:48;14.52;;;7.07;;
67156;SDS011;54086;50.126;8.710;2022-08-27T05:38:16;16.42;;;8.00;;
67156;SDS011;54086;50.126;8.710;2022-08-27T05:40:45;16.38;;;8.38;;
67156;SDS011;54086;50.126;8.710;2022-08-27T05:43:12;14.00;;;7.50;;
67156;SDS011;54086;50.126;8.710;2022-08-27T05:45:40;13.70;;;7.72;;
67156;SDS011;54086;50.126;8.710;2022-08-27T05:48:11;12.95;;;7.20;;
67156;SDS011;54086;50.126;8.710;2022-08-27T05:50:37;15.88;;;7.05;;
67156;SDS011;54086;50.126;8.710;2022-08-27T05:53:03;14.38;;;7.05;;
67156;SDS011;54086;50.126;8.710;2022-08-27T05:55:34;14.60;;;7.53;;
67156;SDS011;54086;50.126;8.710;2022-08-27T05:58:09;14.45;;;7.07;;
67156;SDS011;54086;50.126;8.710;2022-08-27T06:00:55;13.02;;;7.20;;
67156;SDS011;54086;50.126;8.710;2022-08-27T06:03:33;11.52;;;6.68;;
67156;SDS011;54086;50.126;8.710;2022-08-27T06:06:07;12.85;;;6.72;;
67156;SDS011;54086;50.126;8.710;2022-08-27T06:08:35;14.30;;;6.80;;
67156;SDS011;54086;50.126;8.710;2022-08-27T06:11:02;16.10;;;7.18;;
67156;SDS011;54086;50.126;8.710;2022-08-27T06:13:29;16.80;;;6.78;;
67156;SDS011;54086;50.126;8.710;2022-08-27T06:16:06;12.20;;;6.68;;
67156;SDS011;54086;50.126;8.710;2022-08-27T06:18:37;11.90;;;7.30;;
67156;SDS011;54086;50.126;8.710;2022-08-27T06:21:02;22.00;;;7.83;;
67156;SDS011;54086;50.126;8.710;2022-08-27T06:23:28;13.05;;;7.72;;
67156;SDS011;54086;50.126;8.710;2022-08-27T06:25:54;19.10;;;7.87;;
67156;SDS011;54086;50.126;8.710;2022-08-27T06:28:21;14.57;;;7.75;;
67156;SDS011;54086;50.126;8.710;2022-08-27T06:30:48;14.77;;;7.90;;
67156;SDS011;54086;50.126;8.710;2022-08-27T06:33:14;19.92;;;7.55;;
67156;SDS011;54086;50.126;8.710;2022-08-27T06:35:40;16.30;;;7.73;;
67156;SDS011;54086;50.126;8.710;2022-08-27T06:38:05;14.27;;;7.82;;
67156;SDS011;54086;50.126;8.710;2022-08-27T06:40:31;17.50;;;7.90;;
67156;SDS011;54086;50.126;8.710;2022-08-27T06:42:58;22.13;;;7.57;;
67156;SDS011;54086;50.126;8.710;2022-08-27T06:45:24;20.00;;;7.82;;
67156;SDS011;54086;50.126;8.710;2022-08-27T06:47:49;15.80;;;7.47;;
67156;SDS011;54086;50.126;8.710;2022-08-27T06:50:16;15.98;;;7.45;;
67156;SDS011;54086;50.126;8.710;2022-08-27T06:52:41;18.83;;;8.23;;
67156;SDS011;54086;50.126;8.710;2022-08-27T06:55:07;19.52;;;7.95;;
67156;SDS011;54086;50.126;8.710;2022-08-27T06:57:34;21.98;;;8.07;;
67156;SDS011;54086;50.126;8.710;2022-08-27T07:00:00;17.53;;;7.70;;
67156;SDS011;54086;50.126;8.710;2022-08-27T07:02:25;19.00;;;8.30;;
67156;SDS011;54086;50.126;8.710;2022-08-27T07:04:51;15.77;;;7.70;;
67156;SDS011;54086;50.126;8.710;2022-08-27T07:07:17;18.47;;;7.73;;
67156;SDS011;54086;50.126;8.710;2022-08-27T07:09:43;11.90;;;7.45;;
67156;SDS011;54086;50.126;8.710;2022-08-27T07:12:09;14.83;;;7.20;;
67156;SDS011;54086;50.126;8.710;2022-08-27T07:14:35;13.60;;;7.43;;
67156;SDS011;54086;50.126;8.710;2022-08-27T07:17:00;16.67;;;7.80;;
67156;SDS011;54086;50.126;8.710;2022-08-27T07:19:26;19.45;;;7.43;;
67156;SDS011;54086;50.126;8.710;2022-08-27T07:21:52;17.58;;;7.65;;
67156;SDS011;54086;50.126;8.710;2022-08-27T07:24:17;18.53;;;8.20;;
67156;SDS011;54086;50.126;8.710;2022-08-27T07:26:43;18.50;;;7.50;;
67156;SDS011;54086;50.126;8.710;2022-08-27T07:29:10;12.48;;;6.75;;
67156;SDS011;54086;50.126;8.710;2022-08-27T07:31:37;16.17;;;7.40;;
67156;SDS011;54086;50.126;8.710;2022-08-27T07:34:03;13.10;;;6.53;;
67156;SDS011;54086;50.126;8.710;2022-08-27T07:36:29;13.60;;;7.13;;
67156;SDS011;54086;50.126;8.710;2022-08-27T07:38:56;12.45;;;6.70;;
67156;SDS011;54086;50.126;8.710;2022-08-27T07:41:21;17.48;;;7.93;;
67156;SDS011;54086;50.126;8.710;2022-08-27T07:43:47;11.40;;;6.53;;
67156;SDS011;54086;50.126;8.710;2022-08-27T07:46:31;12.90;;;6.57;;
67156;SDS011;54086;50.126;8.710;2022-08-27T07:48:56;25.30;;;7.83;;
67156;SDS011;54086;50.126;8.710;2022-08-27T07:51:22;12.67;;;6.50;;
67156;SDS011;54086;50.126;8.710;2022-08-27T07:53:51;12.63;;;6.07;;
67156;SDS011;54086;50.126;8.710;2022-08-27T07:56:17;13.13;;;6.50;;
67156;SDS011;54086;50.126;8.710;2022-08-27T07:58:42;10.57;;;5.80;;
67156;SDS011;54086;50.126;8.710;2022-08-27T08:01:09;12.32;;;5.60;;
67156;SDS011;54086;50.126;8.710;2022-08-27T08:03:34;27.15;;;6.90;;
67156;SDS011;54086;50.126;8.710;2022-08-27T08:06:04;9.83;;;5.70;;
67156;SDS011;54086;50.126;8.710;2022-08-27T08:08:36;12.50;;;5.93;;
67156;SDS011;54086;50.126;8.710;2022-08-27T08:11:04;9.88;;;4.90;;
67156;SDS011;54086;50.126;8.710;2022-08-27T08:13:34;9.98;;;5.10;;
67156;SDS011;54086;50.126;8.710;2022-08-27T08:15:59;10.57;;;4.80;;
67156;SDS011;54086;50.126;8.710;2022-08-27T08:18:25;10.10;;;5.20;;
67156;SDS011;54086;50.126;8.710;2022-08-27T08:20:50;9.20;;;4.80;;
67156;SDS011;54086;50.126;8.710;2022-08-27T08:23:16;10.57;;;5.60;;
67156;SDS011;54086;50.126;8.710;2022-08-27T08:25:42;10.48;;;5.45;;
67156;SDS011;54086;50.126;8.710;2022-08-27T08:28:08;12.93;;;5.47;;
67156;SDS011;54086;50.126;8.710;2022-08-27T08:30:35;10.45;;;4.95;;
67156;SDS011;54086;50.126;8.710;2022-08-27T08:33:01;13.65;;;5.43;;
67156;SDS011;54086;50.126;8.710;2022-08-27T08:35:26;8.97;;;4.77;;
67156;SDS011;54086;50.126;8.710;2022-08-27T08:37:52;8.60;;;4.22;;
67156;SDS011;54086;50.126;8.710;2022-08-27T08:40:31;10.20;;;4.77;;
67156;SDS011;54086;50.126;8.710;2022-08-27T08:42:56;9.27;;;4.68;;
67156;SDS011;54086;50.126;8.710;2022-08-27T08:45:25;10.13;;;4.63;;
67156;SDS011;54086;50.126;8.710;2022-08-27T08:47:57;11.15;;;5.40;;
67156;SDS011;54086;50.126;8.710;2022-08-27T08:53:52;10.07;;;4.95;;
67156;SDS011;54086;50.126;8.710;2022-08-27T08:59:13;10.65;;;4.65;;
67156;SDS011;54086;50.126;8.710;2022-08-27T09:01:42;10.27;;;5.30;;
67156;SDS011;54086;50.126;8.710;2022-08-27T09:04:09;10.35;;;5.00;;
67156;SDS011;54086;50.126;8.710;2022-08-27T09:06:43;9.50;;;5.00;;
67156;SDS011;54086;50.126;8.710;2022-08-27T09:11:57;10.38;;;4.75;;
67156;SDS011;54086;50.126;8.710;2022-08-27T09:15:00;9.05;;;4.70;;
67156;SDS011;54086;50.126;8.710;2022-08-27T09:17:27;10.15;;;4.55;;
67156;SDS011;54086;50.126;8.710;2022-08-27T09:19:52;8.97;;;4.27;;
67156;SDS011;54086;50.126;8.710;2022-08-27T09:27:30;8.13;;;4.30;;
67156;SDS011;54086;50.126;8.710;2022-08-27T09:29:57;8.45;;;4.20;;
67156;SDS011;54086;50.126;8.710;2022-08-27T09:32:24;10.43;;;4.70;;
67156;SDS011;54086;50.126;8.710;2022-08-27T09:34:57;8.38;;;4.63;;
67156;SDS011;54086;50.126;8.710;2022-08-27T09:37:26;9.02;;;4.85;;
67156;SDS011;54086;50.126;8.710;2022-08-27T09:40:02;8.88;;;4.30;;
67156;SDS011;54086;50.126;8.710;2022-08-27T09:42:37;7.78;;;4.30;;
67156;SDS011;54086;50.126;8.710;2022-08-27T09:45:12;9.77;;;4.27;;
67156;SDS011;54086;50.126;8.710;2022-08-27T09:47:41;9.80;;;4.22;;
67156;SDS011;54086;50.126;8.710;2022-08-27T09:50:13;9.05;;;4.43;;
67156;SDS011;54086;50.126;8.710;2022-08-27T09:52:52;10.55;;;4.38;;
67156;SDS011;54086;50.126;8.710;2022-08-27T09:58:28;7.50;;;3.57;;
67156;SDS011;54086;50.126;8.710;2022-08-27T10:01:01;7.70;;;3.60;;
67156;SDS011;54086;50.126;8.710;2022-08-27T10:03:39;10.15;;;4.68;;
67156;SDS011;54086;50.126;8.710;2022-08-27T10:06:06;7.68;;;4.22;;
67156;SDS011;54086;50.126;8.710;2022-08-27T10:08:42;7.53;;;4.07;;
67156;SDS011;54086;50.126;8.710;2022-08-27T10:11:31;8.73;;;3.97;;
67156;SDS011;54086;50.126;8.710;2022-08-27T10:14:15;8.77;;;4.32;;
67156;SDS011;54086;50.126;8.710;2022-08-27T10:22:19;8.25;;;3.67;;
67156;SDS011;54086;50.126;8.710;2022-08-27T10:25:05;9.63;;;3.90;;
67156;SDS011;54086;50.126;8.710;2022-08-27T10:30:15;9.00;;;3.88;;
67156;SDS011;54086;50.126;8.710;2022-08-27T10:35:11;8.77;;;3.97;;
67156;SDS011;54086;50.126;8.710;2022-08-27T10:40:13;7.80;;;3.83;;
67156;SDS011;54086;50.126;8.710;2022-08-27T10:53:44;8.63;;;4.55;;
67156;SDS011;54086;50.126;8.710;2022-08-27T10:56:29;9.27;;;4.27;;
67156;SDS011;54086;50.126;8.710;2022-08-27T11:04:48;8.48;;;4.30;;
67156;SDS011;54086;50.126;8.710;2022-08-27T11:09:56;8.73;;;4.32;;
67156;SDS011;54086;50.126;8.710;2022-08-27T11:12:46;8.30;;;4.10;;
67156;SDS011;54086;50.126;8.710;2022-08-27T11:18:19;8.30;;;4.60;;
67156;SDS011;54086;50.126;8.710;2022-08-27T11:21:23;7.65;;;4.05;;
67156;SDS011;54086;50.126;8.710;2022-08-27T11:24:13;7.82;;;4.35;;
67156;SDS011;54086;50.126;8.710;2022-08-27T11:26:55;8.40;;;4.22;;
67156;SDS011;54086;50.126;8.710;2022-08-27T11:29:32;8.57;;;3.83;;
67156;SDS011;54086;50.126;8.710;2022-08-27T11:35:27;8.20;;;4.50;;
67156;SDS011;54086;50.126;8.710;2022-08-27T11:40:28;9.52;;;4.60;;
67156;SDS011;54086;50.126;8.710;2022-08-27T11:43:08;8.80;;;4.90;;
67156;SDS011;54086;50.126;8.710;2022-08-27T11:45:49;8.33;;;4.50;;
67156;SDS011;54086;50.126;8.710;2022-08-27T11:48:22;8.60;;;4.33;;
67156;SDS011;54086;50.126;8.710;2022-08-27T11:53:24;11.68;;;4.80;;
67156;SDS011;54086;50.126;8.710;2022-08-27T11:55:53;10.30;;;6.28;;
67156;SDS011;54086;50.126;8.710;2022-08-27T12:00:46;9.70;;;5.03;;
67156;SDS011;54086;50.126;8.710;2022-08-27T12:05:47;9.25;;;4.53;;
67156;SDS011;54086;50.126;8.710;2022-08-27T12:14:01;9.03;;;4.93;;
67156;SDS011;54086;50.126;8.710;2022-08-27T12:20:10;8.85;;;4.35;;
67156;SDS011;54086;50.126;8.710;2022-08-27T12:22:36;7.50;;;4.20;;
67156;SDS011;54086;50.126;8.710;2022-08-27T12:25:24;10.00;;;4.25;;
67156;SDS011;54086;50.126;8.710;2022-08-27T12:28:03;10.13;;;4.53;;
67156;SDS011;54086;50.126;8.710;2022-08-27T12:36:07;8.65;;;5.07;;
67156;SDS011;54086;50.126;8.710;2022-08-27T12:38:44;9.90;;;4.45;;
67156;SDS011;54086;50.126;8.710;2022-08-27T12:41:22;8.70;;;4.37;;
67156;SDS011;54086;50.126;8.710;2022-08-27T12:44:06;9.97;;;4.60;;
67156;SDS011;54086;50.126;8.710;2022-08-27T12:46:35;11.57;;;5.32;;
67156;SDS011;54086;50.126;8.710;2022-08-27T12:49:23;9.90;;;4.70;;
67156;SDS011;54086;50.126;8.710;2022-08-27T12:51:52;9.00;;;4.53;;
67156;SDS011;54086;50.126;8.710;2022-08-27T12:57:14;9.03;;;3.97;;
67156;SDS011;54086;50.126;8.710;2022-08-27T12:59:53;7.93;;;4.43;;
67156;SDS011;54086;50.126;8.710;2022-08-27T13:05:04;8.80;;;4.80;;
67156;SDS011;54086;50.126;8.710;2022-08-27T13:07:31;9.52;;;4.60;;
67156;SDS011;54086;50.126;8.710;2022-08-27T13:10:10;9.77;;;4.90;;
67156;SDS011;54086;50.126;8.710;2022-08-27T13:12:40;8.47;;;4.63;;
67156;SDS011;54086;50.126;8.710;2022-08-27T13:15:09;10.57;;;4.70;;
67156;SDS011;54086;50.126;8.710;2022-08-27T13:17:38;8.00;;;4.28;;
67156;SDS011;54086;50.126;8.710;2022-08-27T13:20:27;7.97;;;4.78;;
67156;SDS011;54086;50.126;8.710;2022-08-27T13:22:52;11.07;;;6.13;;
67156;SDS011;54086;50.126;8.710;2022-08-27T13:25:32;8.93;;;4.57;;
67156;SDS011;54086;50.126;8.710;2022-08-27T13:28:00;10.53;;;4.60;;
67156;SDS011;54086;50.126;8.710;2022-08-27T13:30:41;8.00;;;4.40;;
67156;SDS011;54086;50.126;8.710;2022-08-27T13:33:15;9.40;;;4.78;;
67156;SDS011;54086;50.126;8.710;2022-08-27T13:36:02;8.25;;;4.25;;
67156;SDS011;54086;50.126;8.710;2022-08-27T13:38:32;9.50;;;5.10;;
67156;SDS011;54086;50.126;8.710;2022-08-27T13:41:03;9.35;;;4.97;;
67156;SDS011;54086;50.126;8.710;2022-08-27T13:43:34;8.98;;;4.70;;
67156;SDS011;54086;50.126;8.710;2022-08-27T13:46:05;9.32;;;4.43;;
67156;SDS011;54086;50.126;8.710;2022-08-27T13:48:34;8.70;;;4.82;;
67156;SDS011;54086;50.126;8.710;2022-08-27T13:51:03;8.33;;;4.30;;
67156;SDS011;54086;50.126;8.710;2022-08-27T13:53:31;9.60;;;4.83;;
67156;SDS011;54086;50.126;8.710;2022-08-27T13:56:29;10.00;;;4.50;;
67156;SDS011;54086;50.126;8.710;2022-08-27T13:59:11;7.97;;;4.70;;
67156;SDS011;54086;50.126;8.710;2022-08-27T14:01:52;8.85;;;5.10;;
67156;SDS011;54086;50.126;8.710;2022-08-27T14:04:41;8.98;;;5.07;;
67156;SDS011;54086;50.126;8.710;2022-08-27T14:07:08;8.95;;;4.50;;
67156;SDS011;54086;50.126;8.710;2022-08-27T14:09:44;8.80;;;4.68;;
67156;SDS011;54086;50.126;8.710;2022-08-27T14:12:19;9.13;;;4.80;;
67156;SDS011;54086;50.126;8.710;2022-08-27T14:14:58;8.47;;;4.40;;
67156;SDS011;54086;50.126;8.710;2022-08-27T14:17:36;7.95;;;4.57;;
67156;SDS011;54086;50.126;8.710;2022-08-27T14:20:04;10.32;;;4.88;;
67156;SDS011;54086;50.126;8.710;2022-08-27T14:22:30;9.07;;;4.35;;
67156;SDS011;54086;50.126;8.710;2022-08-27T14:24:58;8.50;;;4.93;;
67156;SDS011;54086;50.126;8.710;2022-08-27T14:27:24;11.07;;;4.83;;
67156;SDS011;54086;50.126;8.710;2022-08-27T14:29:50;8.77;;;4.88;;
67156;SDS011;54086;50.126;8.710;2022-08-27T14:32:16;9.98;;;5.25;;
67156;SDS011;54086;50.126;8.710;2022-08-27T14:34:43;9.13;;;4.35;;
67156;SDS011;54086;50.126;8.710;2022-08-27T14:37:10;10.70;;;4.77;;
67156;SDS011;54086;50.126;8.710;2022-08-27T14:39:36;8.67;;;4.73;;
67156;SDS011;54086;50.126;8.710;2022-08-27T14:42:04;9.40;;;4.65;;
67156;SDS011;54086;50.126;8.710;2022-08-27T14:44:29;8.68;;;4.60;;
67156;SDS011;54086;50.126;8.710;2022-08-27T14:46:56;9.33;;;5.23;;
67156;SDS011;54086;50.126;8.710;2022-08-27T14:49:29;10.98;;;5.32;;
67156;SDS011;54086;50.126;8.710;2022-08-27T14:51:58;8.65;;;4.32;;
67156;SDS011;54086;50.126;8.710;2022-08-27T14:54:25;9.35;;;4.70;;
67156;SDS011;54086;50.126;8.710;2022-08-27T14:56:50;9.57;;;5.10;;
67156;SDS011;54086;50.126;8.710;2022-08-27T14:59:18;9.43;;;5.30;;
67156;SDS011;54086;50.126;8.710;2022-08-27T15:01:44;9.32;;;5.25;;
67156;SDS011;54086;50.126;8.710;2022-08-27T15:04:10;11.10;;;5.20;;
67156;SDS011;54086;50.126;8.710;2022-08-27T15:06:35;8.80;;;5.22;;
67156;SDS011;54086;50.126;8.710;2022-08-27T15:09:01;9.60;;;5.60;;
67156;SDS011;54086;50.126;8.710;2022-08-27T15:11:27;9.03;;;4.97;;
67156;SDS011;54086;50.126;8.710;2022-08-27T15:13:55;15.48;;;5.85;;
67156;SDS011;54086;50.126;8.710;2022-08-27T15:19:03;8.05;;;4.93;;
67156;SDS011;54086;50.126;8.710;2022-08-27T15:21:31;8.75;;;4.78;;
67156;SDS011;54086;50.126;8.710;2022-08-27T15:24:00;11.83;;;5.33;;
67156;SDS011;54086;50.126;8.710;2022-08-27T15:26:28;9.30;;;4.50;;
67156;SDS011;54086;50.126;8.710;2022-08-27T15:28:54;9.23;;;5.00;;
67156;SDS011;54086;50.126;8.710;2022-08-27T15:31:19;7.90;;;4.40;;
67156;SDS011;54086;50.126;8.710;2022-08-27T15:33:48;8.93;;;5.03;;
67156;SDS011;54086;50.126;8.710;2022-08-27T15:36:13;10.80;;;5.78;;
67156;SDS011;54086;50.126;8.710;2022-08-27T15:38:39;11.87;;;6.30;;
67156;SDS011;54086;50.126;8.710;2022-08-27T15:41:05;9.88;;;5.32;;
67156;SDS011;54086;50.126;8.710;2022-08-27T15:43:31;11.82;;;5.63;;
67156;SDS011;54086;50.126;8.710;2022-08-27T15:45:56;10.57;;;5.67;;
67156;SDS011;54086;50.126;8.710;2022-08-27T15:48:22;11.50;;;4.63;;
67156;SDS011;54086;50.126;8.710;2022-08-27T15:50:48;8.40;;;4.80;;
67156;SDS011;54086;50.126;8.710;2022-08-27T15:53:13;12.35;;;5.38;;
67156;SDS011;54086;50.126;8.710;2022-08-27T15:55:40;9.00;;;4.57;;
67156;SDS011;54086;50.126;8.710;2022-08-27T15:58:07;8.77;;;4.35;;
67156;SDS011;54086;50.126;8.710;2022-08-27T16:00:33;7.40;;;4.40;;
67156;SDS011;54086;50.126;8.710;2022-08-27T16:03:05;8.23;;;4.47;;
67156;SDS011;54086;50.126;8.710;2022-08-27T16:05:36;9.68;;;4.68;;
67156;SDS011;54086;50.126;8.710;2022-08-27T16:08:03;8.40;;;4.65;;
67156;SDS011;54086;50.126;8.710;2022-08-27T16:10:30;11.15;;;4.85;;
67156;SDS011;54086;50.126;8.710;2022-08-27T16:12:55;11.60;;;4.90;;
67156;SDS011;54086;50.126;8.710;2022-08-27T16:15:21;8.45;;;5.00;;
67156;SDS011;54086;50.126;8.710;2022-08-27T16:17:46;8.57;;;4.37;;
67156;SDS011;54086;50.126;8.710;2022-08-27T16:20:15;9.57;;;4.32;;
67156;SDS011;54086;50.126;8.710;2022-08-27T16:22:41;7.70;;;3.90;;